Time;durP1;ratioP1;P1;durP2;ratioP2;P2;SDS_P1;SDS_P2;PMS_P1;PMS_P2;Temp;Humidity;BMP_temperature;BMP_pressure;BME280_temperature;BME280_humidity;BME280_pressure;Samples;Min_cycle;Max_cycle;Signal;HPM_P1;HPM_P2
2021/11/03 00:01:17;;;;;;;10.38;1.75;;;;;;;;;;5093730;28;20636;-57
2021/11/03 00:03:46;;;;;;;28.60;10.63;;;;;;;;;;5083306;28;20615;-56
2021/11/03 00:06:14;;;;;;;7.55;1.63;;;;;;;;;;5092301;28;20043;-56
2021/11/03 00:08:40;;;;;;;6.25;1.60;;;;;;;;;;5092332;28;20165;-59
2021/11/03 00:11:06;;;;;;;7.57;1.75;;;;;;;;;;5092455;28;20131;-59
2021/11/03 00:13:32;;;;;;;8.13;1.60;;;;;;;;;;5085577;28;20039;-59
2021/11/03 00:15:58;;;;;;;3.25;1.13;;;;;;;;;;5092899;28;20392;-58
2021/11/03 00:18:24;;;;;;;10.75;1.60;;;;;;;;;;5092680;28;20043;-58
2021/11/03 00:20:50;;;;;;;4.40;1.20;;;;;;;;;;5064684;28;20043;-58
2021/11/03 00:23:17;;;;;;;13.60;2.25;;;;;;;;;;5072295;28;20044;-57
2021/11/03 00:25:45;;;;;;;8.68;1.85;;;;;;;;;;5091174;28;20530;-58
2021/11/03 00:28:12;;;;;;;11.68;2.22;;;;;;;;;;5092914;28;20550;-58
2021/11/03 00:30:38;;;;;;;13.02;4.00;;;;;;;;;;5092487;28;20496;-58
2021/11/03 00:33:05;;;;;;;14.10;4.57;;;;;;;;;;5090965;28;20042;-58
2021/11/03 00:35:31;;;;;;;14.95;2.90;;;;;;;;;;5090514;28;20044;-58
2021/11/03 00:37:57;;;;;;;6.20;2.13;;;;;;;;;;5092903;28;20027;-58
2021/11/03 00:40:22;;;;;;;8.45;2.05;;;;;;;;;;5091952;28;21188;-58
2021/11/03 00:42:50;;;;;;;12.55;1.80;;;;;;;;;;5090638;28;20042;-56
2021/11/03 00:45:16;;;;;;;17.45;2.28;;;;;;;;;;5093125;28;20917;-55
2021/11/03 00:47:42;;;;;;;9.57;2.15;;;;;;;;;;5089522;28;20056;-57
2021/11/03 00:50:09;;;;;;;8.55;1.70;;;;;;;;;;5093023;28;20052;-58
2021/11/03 00:52:35;;;;;;;8.77;1.52;;;;;;;;;;5086429;28;20130;-58
2021/11/03 00:55:00;;;;;;;6.15;1.80;;;;;;;;;;5090155;28;20096;-58
2021/11/03 00:57:26;;;;;;;13.68;2.10;;;;;;;;;;5091435;28;20071;-56
2021/11/03 00:59:52;;;;;;;8.45;2.33;;;;;;;;;;5073495;28;20149;-55
2021/11/03 01:02:18;;;;;;;13.80;6.18;;;;;;;;;;5069097;28;20062;-57
2021/11/03 01:04:45;;;;;;;18.17;3.20;;;;;;;;;;5092206;28;20400;-60
2021/11/03 01:07:11;;;;;;;13.55;2.42;;;;;;;;;;5092750;28;20871;-56
2021/11/03 01:09:37;;;;;;;9.98;2.60;;;;;;;;;;5091836;28;20069;-58
2021/11/03 01:12:03;;;;;;;8.38;1.83;;;;;;;;;;5095682;28;20036;-58
2021/11/03 01:14:29;;;;;;;6.75;2.28;;;;;;;;;;5090757;28;20455;-58
2021/11/03 01:16:55;;;;;;;19.58;3.50;;;;;;;;;;5092472;28;20044;-57
2021/11/03 01:19:21;;;;;;;13.35;4.95;;;;;;;;;;5092020;28;20036;-55
2021/11/03 01:21:46;;;;;;;18.58;9.77;;;;;;;;;;5095441;28;20043;-58
2021/11/03 01:24:12;;;;;;;22.30;8.00;;;;;;;;;;5091861;28;20051;-53
2021/11/03 01:26:38;;;;;;;21.38;8.30;;;;;;;;;;5091475;28;20039;-54
2021/11/03 01:29:04;;;;;;;18.52;6.30;;;;;;;;;;5090136;28;20047;-56
2021/11/03 01:31:31;;;;;;;17.48;6.05;;;;;;;;;;5092464;28;20031;-58
2021/11/03 01:33:57;;;;;;;22.25;6.47;;;;;;;;;;5091937;28;20042;-57
2021/11/03 01:36:23;;;;;;;24.08;7.68;;;;;;;;;;5091706;28;20473;-59
2021/11/03 01:38:50;;;;;;;30.73;8.15;;;;;;;;;;5092974;28;20097;-58
2021/11/03 01:41:16;;;;;;;33.60;10.55;;;;;;;;;;5090992;28;20075;-53
2021/11/03 01:43:47;;;;;;;20.02;5.95;;;;;;;;;;5092475;28;20049;-55
2021/11/03 01:46:15;;;;;;;25.92;8.15;;;;;;;;;;5095027;28;20040;-59
2021/11/03 01:48:41;;;;;;;12.10;4.15;;;;;;;;;;5085157;28;20389;-58
2021/11/03 01:51:07;;;;;;;13.38;4.03;;;;;;;;;;5091882;28;20040;-58
2021/11/03 01:53:34;;;;;;;12.13;3.60;;;;;;;;;;5090970;28;20119;-59
2021/11/03 01:56:02;;;;;;;14.52;3.47;;;;;;;;;;5088856;28;20046;-59
2021/11/03 01:58:33;;;;;;;12.10;2.72;;;;;;;;;;5088557;28;20039;-59
2021/11/03 02:00:59;;;;;;;9.13;2.83;;;;;;;;;;5089925;28;20048;-53
2021/11/03 02:03:27;;;;;;;11.32;3.05;;;;;;;;;;5089656;28;20032;-58
2021/11/03 02:06:00;;;;;;;9.52;2.92;;;;;;;;;;5090745;28;20031;-56
2021/11/03 02:08:28;;;;;;;9.55;2.45;;;;;;;;;;5091614;28;20036;-57
2021/11/03 02:10:54;;;;;;;7.18;2.20;;;;;;;;;;5091240;28;20060;-55
2021/11/03 02:13:21;;;;;;;7.57;1.70;;;;;;;;;;5088249;28;20138;-56
2021/11/03 02:15:46;;;;;;;6.30;1.30;;;;;;;;;;5069507;28;20130;-55
2021/11/03 02:18:15;;;;;;;6.18;1.20;;;;;;;;;;5091901;28;20504;-57
2021/11/03 02:20:43;;;;;;;5.85;1.13;;;;;;;;;;5090817;28;20082;-54
2021/11/03 02:23:24;;;;;;;3.28;1.02;;;;;;;;;;5092155;28;20178;-52
2021/11/03 02:25:53;;;;;;;4.95;1.00;;;;;;;;;;5090415;28;20040;-56
2021/11/03 02:28:19;;;;;;;2.97;1.23;;;;;;;;;;5069827;28;20051;-58
2021/11/03 02:30:45;;;;;;;2.95;1.08;;;;;;;;;;5092197;28;20088;-55
2021/11/03 02:33:16;;;;;;;3.38;1.10;;;;;;;;;;5070215;28;20032;-57
2021/11/03 02:35:48;;;;;;;5.70;1.27;;;;;;;;;;5089431;28;20031;-54
2021/11/03 02:38:26;;;;;;;3.22;1.05;;;;;;;;;;5100148;28;20093;-58
2021/11/03 02:40:58;;;;;;;3.70;1.20;;;;;;;;;;5094944;28;20048;-56
2021/11/03 02:43:29;;;;;;;7.65;1.30;;;;;;;;;;5092096;28;20122;-57
2021/11/03 02:45:56;;;;;;;4.25;1.45;;;;;;;;;;5094648;28;20036;-56
2021/11/03 02:48:24;;;;;;;3.10;1.20;;;;;;;;;;5093034;28;20520;-58
2021/11/03 02:50:53;;;;;;;3.53;1.33;;;;;;;;;;5096029;28;20471;-58
2021/11/03 02:53:18;;;;;;;8.02;1.33;;;;;;;;;;5091039;28;20052;-53
2021/11/03 02:55:44;;;;;;;6.82;1.52;;;;;;;;;;5092699;28;20567;-55
2021/11/03 02:58:10;;;;;;;7.32;1.77;;;;;;;;;;5096697;28;21817;-58
2021/11/03 03:00:36;;;;;;;6.45;1.40;;;;;;;;;;5090203;28;20079;-54
2021/11/03 03:03:02;;;;;;;4.50;1.60;;;;;;;;;;5094258;28;20066;-57
2021/11/03 03:05:28;;;;;;;4.35;1.30;;;;;;;;;;5093267;28;20122;-58
2021/11/03 03:07:54;;;;;;;4.90;1.40;;;;;;;;;;5094044;28;20043;-57
2021/11/03 03:10:20;;;;;;;6.55;1.60;;;;;;;;;;5093292;28;20050;-59
2021/11/03 03:12:46;;;;;;;4.53;1.67;;;;;;;;;;5073579;28;20040;-54
2021/11/03 03:15:12;;;;;;;6.05;2.20;;;;;;;;;;5093844;28;20044;-55
2021/11/03 03:17:38;;;;;;;4.88;1.50;;;;;;;;;;5096830;28;20044;-58
2021/11/03 03:20:05;;;;;;;5.63;1.52;;;;;;;;;;5096012;28;20654;-58
2021/11/03 03:22:31;;;;;;;5.60;1.42;;;;;;;;;;5094272;28;20043;-57
2021/11/03 03:24:57;;;;;;;3.95;1.60;;;;;;;;;;5095417;28;20054;-57
2021/11/03 03:27:23;;;;;;;4.93;1.60;;;;;;;;;;5093629;28;20040;-58
2021/11/03 03:29:49;;;;;;;6.20;1.80;;;;;;;;;;5093370;28;20055;-56
2021/11/03 03:32:15;;;;;;;5.55;1.85;;;;;;;;;;5089863;28;20042;-60
2021/11/03 03:34:41;;;;;;;4.55;1.60;;;;;;;;;;5094281;28;20097;-58
2021/11/03 03:37:07;;;;;;;10.65;2.05;;;;;;;;;;5094094;28;20037;-58
2021/11/03 03:39:33;;;;;;;6.10;1.95;;;;;;;;;;5092876;28;20131;-60
2021/11/03 03:42:01;;;;;;;5.65;2.03;;;;;;;;;;5097575;28;20088;-58
2021/11/03 03:44:26;;;;;;;11.75;2.00;;;;;;;;;;5093618;28;20072;-58
2021/11/03 03:46:53;;;;;;;5.95;1.60;;;;;;;;;;5074682;28;21022;-58
2021/11/03 03:49:18;;;;;;;6.95;1.73;;;;;;;;;;5093132;28;20151;-58
2021/11/03 03:51:44;;;;;;;4.00;1.52;;;;;;;;;;5096051;28;20123;-56
2021/11/03 03:54:10;;;;;;;2.97;1.30;;;;;;;;;;5088514;28;20044;-57
2021/11/03 03:56:36;;;;;;;18.15;8.60;;;;;;;;;;5097127;28;20032;-60
2021/11/03 03:59:03;;;;;;;5.45;2.08;;;;;;;;;;5100418;28;20040;-58
2021/11/03 04:01:29;;;;;;;3.58;1.80;;;;;;;;;;5100973;28;20070;-55
2021/11/03 04:04:04;;;;;;;5.80;1.73;;;;;;;;;;5086098;28;20056;-60
2021/11/03 04:06:30;;;;;;;4.78;1.95;;;;;;;;;;5091099;28;20031;-57
2021/11/03 04:08:56;;;;;;;6.55;1.88;;;;;;;;;;5093573;28;20040;-60
2021/11/03 04:11:22;;;;;;;3.58;1.40;;;;;;;;;;5092622;28;20043;-62
2021/11/03 04:13:48;;;;;;;7.57;1.75;;;;;;;;;;5079314;28;20062;-60
2021/11/03 04:16:14;;;;;;;3.28;1.40;;;;;;;;;;5096615;28;21767;-59
2021/11/03 04:18:43;;;;;;;9.20;1.42;;;;;;;;;;5087603;28;20050;-58
2021/11/03 04:21:09;;;;;;;14.00;2.03;;;;;;;;;;5094742;28;20056;-54
2021/11/03 04:23:36;;;;;;;4.60;1.65;;;;;;;;;;5090957;28;20031;-57
2021/11/03 04:26:02;;;;;;;5.53;1.35;;;;;;;;;;5091101;28;20147;-57
2021/11/03 04:28:28;;;;;;;4.93;1.55;;;;;;;;;;5093932;28;20040;-56
2021/11/03 04:30:55;;;;;;;4.85;2.00;;;;;;;;;;5093664;28;20051;-57
2021/11/03 04:33:20;;;;;;;3.53;1.60;;;;;;;;;;5073685;28;20265;-55
2021/11/03 04:35:47;;;;;;;4.57;1.88;;;;;;;;;;5069172;28;20042;-55
2021/11/03 04:38:14;;;;;;;4.95;1.63;;;;;;;;;;5094001;28;20127;-57
2021/11/03 04:40:39;;;;;;;4.57;1.52;;;;;;;;;;5093576;28;20055;-56
2021/11/03 04:43:05;;;;;;;4.07;1.67;;;;;;;;;;5091759;28;20036;-55
2021/11/03 04:45:31;;;;;;;4.57;1.60;;;;;;;;;;5090502;28;20035;-58
2021/11/03 04:47:57;;;;;;;3.58;1.45;;;;;;;;;;5091933;28;20039;-58
2021/11/03 04:50:25;;;;;;;4.32;1.42;;;;;;;;;;5091562;28;20051;-55
2021/11/03 04:52:51;;;;;;;3.20;1.23;;;;;;;;;;5089077;28;20051;-56
2021/11/03 04:55:17;;;;;;;2.92;1.13;;;;;;;;;;5092547;28;20044;-57
2021/11/03 04:57:43;;;;;;;3.53;1.30;;;;;;;;;;5092575;28;20581;-56
2021/11/03 05:00:13;;;;;;;4.75;1.50;;;;;;;;;;5091391;28;20054;-58
2021/11/03 05:02:39;;;;;;;5.03;1.33;;;;;;;;;;5090323;28;20046;-56
2021/11/03 05:05:06;;;;;;;4.38;1.45;;;;;;;;;;5089631;28;20045;-57
2021/11/03 05:07:32;;;;;;;4.22;1.60;;;;;;;;;;5090888;28;20381;-54
2021/11/03 05:09:58;;;;;;;4.57;1.60;;;;;;;;;;5093069;28;20070;-56
2021/11/03 05:12:24;;;;;;;6.47;3.03;;;;;;;;;;5091220;28;20430;-58
2021/11/03 05:14:49;;;;;;;4.35;1.45;;;;;;;;;;5092307;28;20066;-58
2021/11/03 05:17:15;;;;;;;4.20;1.65;;;;;;;;;;5068176;28;20093;-58
2021/11/03 05:19:41;;;;;;;5.95;1.52;;;;;;;;;;5092573;28;20032;-58
2021/11/03 05:22:09;;;;;;;3.13;1.48;;;;;;;;;;5090949;28;20039;-58
2021/11/03 05:24:36;;;;;;;4.47;1.38;;;;;;;;;;5086649;28;20085;-57
2021/11/03 05:27:02;;;;;;;4.10;1.40;;;;;;;;;;5093870;28;20040;-57
2021/11/03 05:29:28;;;;;;;2.88;1.10;;;;;;;;;;5089962;28;20051;-52
2021/11/03 05:31:54;;;;;;;3.35;1.35;;;;;;;;;;5090617;28;20036;-56
2021/11/03 05:34:20;;;;;;;6.50;1.73;;;;;;;;;;5090601;28;20039;-58
2021/11/03 05:36:46;;;;;;;10.00;1.55;;;;;;;;;;5092195;28;20039;-57
2021/11/03 05:39:13;;;;;;;7.35;1.63;;;;;;;;;;5094913;28;20119;-57
2021/11/03 05:41:39;;;;;;;4.45;1.63;;;;;;;;;;5092539;28;20067;-58
2021/11/03 05:44:06;;;;;;;3.45;1.48;;;;;;;;;;5090152;28;20040;-55
2021/11/03 05:46:34;;;;;;;3.65;1.60;;;;;;;;;;5088839;28;20123;-56
2021/11/03 05:49:03;;;;;;;5.53;1.50;;;;;;;;;;5091749;28;20062;-57
2021/11/03 05:51:29;;;;;;;4.43;1.70;;;;;;;;;;5089617;28;20082;-57
2021/11/03 05:53:55;;;;;;;3.80;1.58;;;;;;;;;;5071956;28;20028;-56
2021/11/03 05:56:20;;;;;;;6.78;1.77;;;;;;;;;;5090300;28;20360;-56
2021/11/03 05:58:46;;;;;;;3.55;1.55;;;;;;;;;;5089694;28;20074;-58
2021/11/03 06:01:12;;;;;;;3.67;1.70;;;;;;;;;;5090734;28;20051;-56
2021/11/03 06:03:38;;;;;;;3.53;1.60;;;;;;;;;;5090172;28;20039;-57
2021/11/03 06:06:04;;;;;;;6.13;2.00;;;;;;;;;;5092010;28;20058;-57
2021/11/03 06:08:30;;;;;;;6.55;1.80;;;;;;;;;;5089097;28;20036;-57
2021/11/03 06:10:57;;;;;;;4.65;1.73;;;;;;;;;;5094034;28;20646;-58
2021/11/03 06:13:23;;;;;;;6.03;1.90;;;;;;;;;;5094830;28;20117;-56
2021/11/03 06:15:48;;;;;;;8.20;1.88;;;;;;;;;;5094716;28;20051;-58
2021/11/03 06:18:14;;;;;;;4.15;1.95;;;;;;;;;;5094733;28;20039;-57
2021/11/03 06:20:40;;;;;;;4.10;1.63;;;;;;;;;;5096253;28;20057;-58
2021/11/03 06:23:06;;;;;;;5.18;2.00;;;;;;;;;;5096433;28;20044;-59
2021/11/03 06:25:34;;;;;;;4.45;1.77;;;;;;;;;;5095372;28;20040;-57
2021/11/03 06:28:01;;;;;;;5.20;2.15;;;;;;;;;;5095277;28;20700;-58
2021/11/03 06:30:28;;;;;;;6.18;2.25;;;;;;;;;;5097662;28;20040;-57
2021/11/03 06:32:54;;;;;;;4.32;1.70;;;;;;;;;;5096216;28;20035;-57
2021/11/03 06:35:20;;;;;;;5.55;2.00;;;;;;;;;;5098865;28;20609;-58
2021/11/03 06:37:46;;;;;;;4.32;1.77;;;;;;;;;;5096837;28;20046;-57
2021/11/03 06:40:15;;;;;;;4.20;2.13;;;;;;;;;;5097624;28;20633;-57
2021/11/03 06:42:41;;;;;;;3.38;1.88;;;;;;;;;;5095221;28;20036;-58
2021/11/03 06:45:08;;;;;;;4.47;1.75;;;;;;;;;;5094951;28;20039;-56
2021/11/03 06:47:36;;;;;;;4.95;1.95;;;;;;;;;;5094000;28;20932;-55
2021/11/03 06:50:03;;;;;;;5.13;2.05;;;;;;;;;;5092205;28;20043;-58
2021/11/03 06:52:29;;;;;;;4.65;1.67;;;;;;;;;;5093196;28;20032;-57
2021/11/03 06:54:55;;;;;;;5.03;1.77;;;;;;;;;;5097500;28;20065;-55
2021/11/03 06:57:21;;;;;;;4.65;2.00;;;;;;;;;;5092986;28;20043;-58
2021/11/03 06:59:48;;;;;;;5.60;1.95;;;;;;;;;;5074410;28;20036;-57
2021/11/03 07:02:16;;;;;;;9.73;2.47;;;;;;;;;;5094488;28;20048;-57
2021/11/03 07:04:41;;;;;;;8.05;2.35;;;;;;;;;;5092529;28;20074;-56
2021/11/03 07:07:07;;;;;;;6.82;2.40;;;;;;;;;;5093602;28;20115;-58
2021/11/03 07:09:33;;;;;;;6.43;2.40;;;;;;;;;;5092635;28;20042;-56
2021/11/03 07:11:59;;;;;;;11.73;2.28;;;;;;;;;;5095458;28;21838;-58
2021/11/03 07:14:25;;;;;;;5.28;2.30;;;;;;;;;;5093084;28;20035;-58
2021/11/03 07:16:52;;;;;;;5.15;2.22;;;;;;;;;;5094268;28;20123;-56
2021/11/03 07:19:18;;;;;;;6.95;2.28;;;;;;;;;;5093433;28;20119;-58
2021/11/03 07:21:44;;;;;;;5.43;2.38;;;;;;;;;;5092743;28;20051;-56
2021/11/03 07:24:12;;;;;;;8.13;2.67;;;;;;;;;;5092929;28;20047;-55
2021/11/03 07:26:41;;;;;;;4.40;2.22;;;;;;;;;;5093687;28;20753;-55
2021/11/03 07:29:08;;;;;;;8.40;2.60;;;;;;;;;;5094612;28;20237;-56
2021/11/03 07:31:34;;;;;;;5.40;2.55;;;;;;;;;;5092485;28;20035;-58
2021/11/03 07:34:00;;;;;;;8.80;2.40;;;;;;;;;;5092015;28;20140;-58
2021/11/03 07:36:26;;;;;;;8.85;2.35;;;;;;;;;;5093315;28;20046;-58
2021/11/03 07:38:52;;;;;;;5.68;2.10;;;;;;;;;;5093658;28;20036;-58
2021/11/03 07:41:18;;;;;;;4.65;2.42;;;;;;;;;;5075118;28;20043;-57
2021/11/03 07:43:45;;;;;;;9.23;2.35;;;;;;;;;;5093797;28;20492;-58
2021/11/03 07:46:11;;;;;;;4.53;2.20;;;;;;;;;;5093202;28;20036;-56
2021/11/03 07:48:37;;;;;;;10.63;2.15;;;;;;;;;;5093322;28;20286;-58
2021/11/03 07:51:05;;;;;;;4.50;1.77;;;;;;;;;;5095333;28;20087;-57
2021/11/03 07:53:31;;;;;;;5.65;2.20;;;;;;;;;;5090231;28;20127;-54
2021/11/03 07:55:59;;;;;;;7.40;2.38;;;;;;;;;;5093130;28;20059;-56
2021/11/03 07:58:28;;;;;;;7.60;1.98;;;;;;;;;;5090645;28;20032;-58
2021/11/03 08:00:55;;;;;;;5.65;2.10;;;;;;;;;;5072130;28;20075;-55
2021/11/03 08:03:21;;;;;;;7.38;2.45;;;;;;;;;;5093063;28;20039;-55
2021/11/03 08:05:50;;;;;;;5.32;2.47;;;;;;;;;;5073938;28;20039;-57
2021/11/03 08:08:16;;;;;;;7.85;2.40;;;;;;;;;;5094170;28;20131;-58
2021/11/03 08:10:43;;;;;;;7.57;2.42;;;;;;;;;;5094352;28;20058;-58
2021/11/03 08:13:19;;;;;;;9.32;2.83;;;;;;;;;;5091169;28;20135;-53
2021/11/03 08:15:46;;;;;;;6.70;2.55;;;;;;;;;;5075095;28;20047;-57
2021/11/03 08:18:13;;;;;;;5.03;2.63;;;;;;;;;;5093676;28;20033;-56
2021/11/03 08:20:39;;;;;;;8.27;3.13;;;;;;;;;;5091220;28;20657;-58
2021/11/03 08:23:06;;;;;;;5.25;2.63;;;;;;;;;;5074584;28;20039;-57
2021/11/03 08:25:32;;;;;;;7.53;2.97;;;;;;;;;;5092708;28;20036;-58
2021/11/03 08:27:57;;;;;;;5.60;2.58;;;;;;;;;;5093317;28;20486;-57
2021/11/03 08:30:23;;;;;;;5.53;2.45;;;;;;;;;;5093075;28;20035;-57
2021/11/03 08:32:55;;;;;;;7.13;2.50;;;;;;;;;;5090498;28;20032;-56
2021/11/03 08:35:22;;;;;;;4.13;1.98;;;;;;;;;;5093285;28;20058;-60
2021/11/03 08:37:52;;;;;;;6.20;2.42;;;;;;;;;;5093394;28;20132;-57
2021/11/03 08:40:19;;;;;;;5.82;2.30;;;;;;;;;;5094292;28;20496;-58
2021/11/03 08:42:46;;;;;;;5.75;2.10;;;;;;;;;;5093170;28;20055;-59
2021/11/03 08:45:13;;;;;;;7.80;2.55;;;;;;;;;;5092476;28;20085;-57
2021/11/03 08:47:39;;;;;;;7.43;2.80;;;;;;;;;;5093407;28;21044;-57
2021/11/03 08:50:07;;;;;;;5.65;2.38;;;;;;;;;;5093589;28;20040;-58
2021/11/03 08:52:33;;;;;;;4.50;2.10;;;;;;;;;;5091649;28;20072;-55
2021/11/03 08:54:58;;;;;;;7.93;2.55;;;;;;;;;;5093866;28;20603;-58
2021/11/03 08:57:24;;;;;;;6.15;2.10;;;;;;;;;;5091587;28;20122;-57
2021/11/03 08:59:51;;;;;;;8.05;2.53;;;;;;;;;;5073498;28;20048;-56
2021/11/03 09:02:17;;;;;;;4.07;2.03;;;;;;;;;;5091861;28;22434;-56
2021/11/03 09:04:45;;;;;;;7.15;2.55;;;;;;;;;;5090776;28;20032;-55
2021/11/03 09:07:12;;;;;;;6.28;2.70;;;;;;;;;;5093502;28;20523;-59
2021/11/03 09:09:38;;;;;;;5.65;2.95;;;;;;;;;;5090539;28;20725;-58
2021/11/03 09:12:06;;;;;;;6.38;2.90;;;;;;;;;;5090761;28;20039;-57
2021/11/03 09:14:31;;;;;;;5.40;2.60;;;;;;;;;;5091104;28;20028;-57
2021/11/03 09:16:57;;;;;;;6.07;2.50;;;;;;;;;;5092264;28;20044;-58
2021/11/03 09:19:23;;;;;;;7.97;2.70;;;;;;;;;;5091893;28;20047;-61
2021/11/03 09:21:49;;;;;;;4.05;2.20;;;;;;;;;;5092832;28;20079;-57
2021/11/03 09:24:15;;;;;;;7.40;2.80;;;;;;;;;;5090229;28;20071;-58
2021/11/03 09:26:42;;;;;;;9.93;2.70;;;;;;;;;;5092611;28;20063;-57
2021/11/03 09:29:08;;;;;;;4.55;2.25;;;;;;;;;;5091348;28;20090;-58
2021/11/03 09:31:34;;;;;;;11.10;2.85;;;;;;;;;;5091925;28;20051;-59
2021/11/03 09:34:00;;;;;;;5.78;2.67;;;;;;;;;;5089889;28;20040;-57
2021/11/03 09:36:26;;;;;;;8.45;2.47;;;;;;;;;;5090842;28;20063;-57
2021/11/03 09:38:52;;;;;;;5.10;2.15;;;;;;;;;;5090166;28;20036;-59
2021/11/03 09:41:20;;;;;;;7.53;2.45;;;;;;;;;;5093045;28;20089;-57
2021/11/03 09:43:49;;;;;;;5.35;2.20;;;;;;;;;;5088900;28;20045;-59
2021/11/03 09:46:17;;;;;;;9.70;3.22;;;;;;;;;;5091752;28;20240;-56
2021/11/03 09:48:43;;;;;;;5.25;2.58;;;;;;;;;;5090426;28;20047;-58
2021/11/03 09:51:16;;;;;;;5.00;2.35;;;;;;;;;;5091401;28;20031;-58
2021/11/03 09:53:50;;;;;;;7.97;2.95;;;;;;;;;;5089202;28;20043;-56
2021/11/03 09:56:18;;;;;;;5.25;2.45;;;;;;;;;;5092622;28;20047;-58
2021/11/03 09:59:00;;;;;;;7.00;2.63;;;;;;;;;;5091891;28;20048;-59
2021/11/03 10:01:46;;;;;;;6.05;2.53;;;;;;;;;;5085330;28;20074;-57
2021/11/03 10:04:31;;;;;;;4.70;2.28;;;;;;;;;;5048918;28;20046;-56
2021/11/03 10:06:56;;;;;;;8.15;2.60;;;;;;;;;;5091931;28;20040;-56
2021/11/03 10:09:22;;;;;;;4.95;2.78;;;;;;;;;;5084340;28;20051;-54
2021/11/03 10:11:52;;;;;;;5.80;2.88;;;;;;;;;;5092332;28;20423;-56
2021/11/03 10:14:19;;;;;;;12.25;3.15;;;;;;;;;;5092759;28;20051;-56
2021/11/03 10:16:49;;;;;;;4.55;2.33;;;;;;;;;;5094142;28;20048;-57
2021/11/03 10:19:20;;;;;;;6.78;2.78;;;;;;;;;;5094365;28;20028;-59
2021/11/03 10:21:46;;;;;;;7.15;2.67;;;;;;;;;;5092324;28;20101;-53
2021/11/03 10:24:12;;;;;;;6.95;2.67;;;;;;;;;;5087788;28;20435;-57
2021/11/03 10:26:53;;;;;;;4.82;2.60;;;;;;;;;;5090124;28;20051;-56
2021/11/03 10:29:21;;;;;;;7.75;2.70;;;;;;;;;;5091081;28;20051;-58
2021/11/03 10:32:10;;;;;;;6.13;2.80;;;;;;;;;;5090830;28;20042;-58
2021/11/03 10:34:36;;;;;;;8.23;2.83;;;;;;;;;;5078525;28;20400;-56
2021/11/03 10:37:13;;;;;;;6.15;2.58;;;;;;;;;;5090592;28;20039;-57
2021/11/03 10:39:40;;;;;;;5.15;2.42;;;;;;;;;;5091272;28;20519;-56
2021/11/03 10:42:14;;;;;;;5.50;2.65;;;;;;;;;;5088893;28;20412;-56
2021/11/03 10:44:40;;;;;;;5.38;2.28;;;;;;;;;;5088591;28;20047;-55
2021/11/03 10:47:11;;;;;;;7.10;2.78;;;;;;;;;;5090092;28;20031;-57
2021/11/03 10:50:01;;;;;;;6.53;3.10;;;;;;;;;;5090476;28;20049;-57
2021/11/03 10:52:33;;;;;;;5.88;2.55;;;;;;;;;;5088875;28;20131;-58
2021/11/03 10:55:01;;;;;;;6.57;2.80;;;;;;;;;;5090106;28;20070;-56
2021/11/03 10:57:38;;;;;;;7.75;2.78;;;;;;;;;;5092546;28;20036;-57
2021/11/03 11:00:25;;;;;;;5.40;2.72;;;;;;;;;;5094274;28;20081;-59
2021/11/03 11:02:59;;;;;;;5.70;2.53;;;;;;;;;;5095584;28;20472;-56
2021/11/03 11:05:27;;;;;;;5.47;2.50;;;;;;;;;;5093468;28;20067;-57
2021/11/03 11:07:56;;;;;;;5.55;2.35;;;;;;;;;;5095546;28;20490;-57
2021/11/03 11:10:41;;;;;;;7.30;2.40;;;;;;;;;;5089616;28;20493;-57
2021/11/03 11:13:15;;;;;;;5.05;2.60;;;;;;;;;;5094940;28;20142;-54
2021/11/03 11:15:56;;;;;;;4.97;2.70;;;;;;;;;;5094015;28;20110;-57
2021/11/03 11:18:39;;;;;;;7.75;3.00;;;;;;;;;;5073644;28;20043;-55
2021/11/03 11:21:16;;;;;;;6.25;2.67;;;;;;;;;;5092608;28;20050;-54
2021/11/03 11:23:53;;;;;;;6.60;3.20;;;;;;;;;;5090008;28;20044;-57
2021/11/03 11:26:37;;;;;;;10.65;2.90;;;;;;;;;;5093375;28;20040;-54
2021/11/03 11:29:10;;;;;;;9.35;2.45;;;;;;;;;;5064181;28;21044;-58
2021/11/03 11:31:42;;;;;;;6.63;2.78;;;;;;;;;;5052659;28;22451;-55
2021/11/03 11:34:08;;;;;;;9.00;3.00;;;;;;;;;;5053183;28;20045;-57
2021/11/03 11:36:37;;;;;;;6.22;2.67;;;;;;;;;;5050711;28;20087;-57
2021/11/03 11:39:09;;;;;;;6.82;2.60;;;;;;;;;;5044400;28;20080;-58
2021/11/03 11:41:47;;;;;;;6.90;2.60;;;;;;;;;;5052839;28;20693;-57
2021/11/03 11:44:17;;;;;;;6.43;2.50;;;;;;;;;;5052898;28;20135;-57
2021/11/03 11:46:45;;;;;;;10.20;2.90;;;;;;;;;;5051663;28;20040;-56
2021/11/03 11:49:19;;;;;;;5.60;2.60;;;;;;;;;;5053773;28;20634;-57
2021/11/03 11:51:50;;;;;;;6.00;2.72;;;;;;;;;;5037247;28;20037;-55
2021/11/03 11:54:22;;;;;;;5.25;2.55;;;;;;;;;;5053190;28;20064;-56
2021/11/03 11:57:07;;;;;;;5.10;2.22;;;;;;;;;;5050972;28;20056;-57
2021/11/03 11:59:52;;;;;;;6.38;2.88;;;;;;;;;;5043333;28;20041;-58
2021/11/03 12:02:21;;;;;;;14.63;3.13;;;;;;;;;;5040309;28;20136;-57
2021/11/03 12:04:47;;;;;;;5.03;2.30;;;;;;;;;;5054363;28;20037;-56
2021/11/03 12:07:16;;;;;;;5.10;2.53;;;;;;;;;;5050081;28;20304;-57
2021/11/03 12:09:46;;;;;;;5.32;2.53;;;;;;;;;;5051517;28;20048;-58
2021/11/03 12:12:12;;;;;;;5.10;2.60;;;;;;;;;;5053025;28;20045;-59
2021/11/03 12:14:46;;;;;;;9.30;2.85;;;;;;;;;;5052868;28;20123;-55
2021/11/03 12:17:17;;;;;;;9.30;2.70;;;;;;;;;;5048423;28;20452;-58
2021/11/03 12:19:53;;;;;;;7.15;2.80;;;;;;;;;;5051680;28;20576;-58
2021/11/03 12:22:30;;;;;;;6.75;2.88;;;;;;;;;;5064756;28;20053;-59
2021/11/03 12:25:19;;;;;;;7.90;2.92;;;;;;;;;;5046679;28;20045;-57
2021/11/03 12:27:46;;;;;;;6.72;2.80;;;;;;;;;;5061287;28;20052;-55
2021/11/03 12:30:12;;;;;;;12.50;3.85;;;;;;;;;;5082819;28;20073;-57
2021/11/03 12:32:41;;;;;;;11.00;3.10;;;;;;;;;;5092900;28;20043;-58
2021/11/03 12:35:19;;;;;;;12.10;3.38;;;;;;;;;;5091659;28;20036;-57
2021/11/03 12:37:50;;;;;;;5.78;2.53;;;;;;;;;;5083650;28;20710;-58
2021/11/03 12:40:22;;;;;;;7.18;3.20;;;;;;;;;;5092093;28;20047;-57
2021/11/03 12:42:52;;;;;;;5.00;2.63;;;;;;;;;;5092398;28;20038;-56
2021/11/03 12:45:20;;;;;;;8.73;2.85;;;;;;;;;;5070819;28;20055;-57
2021/11/03 12:47:54;;;;;;;6.82;2.80;;;;;;;;;;5091652;28;20036;-56
2021/11/03 12:50:46;;;;;;;10.07;2.92;;;;;;;;;;5094310;28;20073;-56
2021/11/03 12:53:30;;;;;;;6.03;2.40;;;;;;;;;;5087616;28;20142;-57
2021/11/03 12:56:01;;;;;;;6.82;2.42;;;;;;;;;;5090079;28;20561;-56
2021/11/03 12:58:35;;;;;;;9.73;3.25;;;;;;;;;;5092588;28;20135;-58
2021/11/03 13:01:03;;;;;;;7.32;2.33;;;;;;;;;;5094000;28;20043;-56
2021/11/03 13:03:31;;;;;;;4.82;2.00;;;;;;;;;;5092572;28;20601;-57
2021/11/03 13:05:58;;;;;;;6.20;1.75;;;;;;;;;;5090540;28;20786;-60
2021/11/03 13:08:26;;;;;;;9.27;1.98;;;;;;;;;;5088215;28;20110;-59
2021/11/03 13:11:00;;;;;;;4.47;1.80;;;;;;;;;;5092625;28;20834;-56
2021/11/03 13:13:25;;;;;;;;;;;;;;;;;;5090330;28;20031;-57
2021/11/03 13:15:53;;;;;;;3.88;1.58;;;;;;;;;;5092343;28;19969;-60
2021/11/03 13:18:21;;;;;;;5.10;1.50;;;;;;;;;;5096112;28;20131;-57
2021/11/03 13:20:57;;;;;;;4.10;1.77;;;;;;;;;;5091458;28;20051;-57
2021/11/03 13:23:24;;;;;;;5.05;1.60;;;;;;;;;;5090424;28;20780;-56
2021/11/03 13:25:53;;;;;;;6.97;2.00;;;;;;;;;;5069656;28;20054;-56
2021/11/03 13:28:33;;;;;;;4.57;1.77;;;;;;;;;;5090281;28;20048;-58
2021/11/03 13:30:59;;;;;;;6.90;2.25;;;;;;;;;;5091823;28;20059;-56
2021/11/03 13:33:30;;;;;;;6.15;1.80;;;;;;;;;;5088862;28;20406;-58
2021/11/03 13:35:58;;;;;;;11.32;2.45;;;;;;;;;;5091304;28;20036;-60
2021/11/03 13:38:26;;;;;;;7.93;2.20;;;;;;;;;;5089134;28;20032;-57
2021/11/03 13:40:54;;;;;;;5.53;2.15;;;;;;;;;;5093343;28;20047;-60
2021/11/03 13:43:20;;;;;;;9.25;2.17;;;;;;;;;;5096270;28;20051;-59
2021/11/03 13:46:15;;;;;;;8.98;2.85;;;;;;;;;;5092665;28;20112;-58
2021/11/03 13:48:44;;;;;;;15.82;3.30;;;;;;;;;;5070466;28;20057;-56
2021/11/03 13:51:15;;;;;;;10.05;2.90;;;;;;;;;;5094117;28;20066;-60
2021/11/03 13:53:49;;;;;;;7.97;2.28;;;;;;;;;;5089497;28;20044;-56
2021/11/03 13:56:16;;;;;;;10.75;2.55;;;;;;;;;;5091270;28;20148;-60
2021/11/03 13:58:58;;;;;;;8.40;2.22;;;;;;;;;;5094617;28;20063;-57
2021/11/03 14:01:24;;;;;;;5.10;1.77;;;;;;;;;;5091038;28;20073;-60
2021/11/03 14:03:56;;;;;;;6.00;2.15;;;;;;;;;;5091781;28;20051;-58
2021/11/03 14:06:22;;;;;;;5.22;1.88;;;;;;;;;;5090252;28;20191;-60
2021/11/03 14:08:49;;;;;;;6.47;2.38;;;;;;;;;;5091376;28;20050;-57
2021/11/03 14:11:15;;;;;;;6.25;2.20;;;;;;;;;;5092212;28;20123;-58
2021/11/03 14:13:41;;;;;;;5.70;2.10;;;;;;;;;;5089784;28;20056;-57
2021/11/03 14:16:14;;;;;;;7.90;2.92;;;;;;;;;;5089075;28;20858;-57
2021/11/03 14:18:40;;;;;;;7.85;2.33;;;;;;;;;;5057212;28;22824;-57
2021/11/03 14:21:05;;;;;;;10.15;2.50;;;;;;;;;;5087337;28;20099;-57
2021/11/03 14:23:31;;;;;;;12.63;2.30;;;;;;;;;;5090283;28;20404;-59
2021/11/03 14:25:57;;;;;;;10.32;2.58;;;;;;;;;;5091768;28;20040;-59
2021/11/03 14:28:23;;;;;;;5.45;1.92;;;;;;;;;;5090049;28;20048;-58
2021/11/03 14:31:00;;;;;;;5.05;2.30;;;;;;;;;;5091391;28;20472;-57
2021/11/03 14:33:26;;;;;;;9.77;2.90;;;;;;;;;;5095861;28;20044;-59
2021/11/03 14:35:53;;;;;;;10.02;2.33;;;;;;;;;;5097371;28;20664;-56
2021/11/03 14:38:23;;;;;;;4.63;2.22;;;;;;;;;;5095420;28;20092;-57
2021/11/03 14:40:49;;;;;;;10.10;2.67;;;;;;;;;;5099221;28;20043;-60
2021/11/03 14:43:15;;;;;;;8.73;2.72;;;;;;;;;;5096659;28;20043;-59
2021/11/03 14:45:41;;;;;;;7.07;2.30;;;;;;;;;;5093121;28;20123;-56
2021/11/03 14:48:10;;;;;;;8.50;2.58;;;;;;;;;;5096393;28;20044;-56